Time;durP1;ratioP1;P1;durP2;ratioP2;P2;SDS_P1;SDS_P2;PMS_P1;PMS_P2;Temp;Humidity;BMP_temperature;BMP_pressure;BME280_temperature;BME280_humidity;BME280_pressure;Samples;Min_cycle;Max_cycle;Signal;HPM_P1;HPM_P2
2024/04/10 00:01:15;;;;;;;13.25;1.98;;;9.90;99.90;;;;;;5395880;26;20037;-77
2024/04/10 00:03:41;;;;;;;6.18;1.27;;;9.80;99.90;;;;;;5308898;26;19997;-77
2024/04/10 00:06:08;;;;;;;7.22;1.65;;;9.80;99.90;;;;;;5324875;26;20009;-77
2024/04/10 00:08:34;;;;;;;9.85;1.15;;;9.70;99.90;;;;;;5332204;26;20000;-77
2024/04/10 00:11:02;;;;;;;12.68;1.55;;;9.60;99.90;;;;;;5330981;26;20729;-76
2024/04/10 00:13:28;;;;;;;5.90;1.48;;;9.60;99.90;;;;;;5338621;26;21120;-77
2024/04/10 00:16:01;;;;;;;6.18;1.25;;;9.60;99.90;;;;;;5309352;26;20020;-77
2024/04/10 00:18:32;;;;;;;12.20;2.45;;;9.70;99.90;;;;;;5391129;26;20009;-77
2024/04/10 00:20:58;;;;;;;5.18;1.42;;;9.50;99.90;;;;;;5340071;26;20005;-76
2024/04/10 00:23:24;;;;;;;9.30;1.83;;;9.30;99.90;;;;;;5368900;26;20080;-77
2024/04/10 00:25:59;;;;;;;7.35;1.20;;;9.50;99.90;;;;;;5330560;26;19997;-77
2024/04/10 00:28:25;;;;;;;8.20;1.60;;;9.40;99.90;;;;;;5372819;26;20012;-76
2024/04/10 00:30:50;;;;;;;6.22;1.02;;;9.40;99.90;;;;;;5327842;26;20009;-76
2024/04/10 00:33:18;;;;;;;9.65;1.77;;;9.50;99.90;;;;;;5334037;26;20005;-77
2024/04/10 00:35:52;;;;;;;14.40;2.15;;;9.40;99.90;;;;;;5343731;26;20357;-76
2024/04/10 00:38:18;;;;;;;10.70;2.00;;;9.60;99.90;;;;;;5341600;26;20001;-76
2024/04/10 00:40:52;;;;;;;3.40;0.80;;;9.50;99.90;;;;;;5335738;26;20001;-76
2024/04/10 00:43:18;;;;;;;4.65;1.13;;;9.40;99.90;;;;;;5396931;26;20000;-76
2024/04/10 00:45:44;;;;;;;12.18;2.50;;;9.40;99.90;;;;;;5331013;26;19998;-77
2024/04/10 00:48:10;;;;;;;11.98;2.58;;;9.40;99.90;;;;;;5343839;26;20077;-76
2024/04/10 00:50:35;;;;;;;6.00;1.67;;;9.40;99.90;;;;;;5319805;26;20119;-76
2024/04/10 00:53:01;;;;;;;12.30;2.38;;;9.20;99.90;;;;;;5304104;26;20788;-77
2024/04/10 00:55:27;;;;;;;9.18;1.15;;;9.30;99.90;;;;;;5365908;26;20001;-76
2024/04/10 00:57:54;;;;;;;12.65;1.85;;;9.40;99.90;;;;;;5343209;26;20001;-76
2024/04/10 01:00:20;;;;;;;10.60;1.95;;;9.40;99.90;;;;;;5328441;26;20069;-76
2024/04/10 01:02:45;;;;;;;3.17;1.00;;;9.40;99.90;;;;;;5337178;26;20080;-77
2024/04/10 01:05:11;;;;;;;11.73;1.52;;;9.20;99.90;;;;;;5367147;26;20001;-76
2024/04/10 01:07:36;;;;;;;8.65;1.88;;;9.20;99.90;;;;;;5369009;26;20097;-75
2024/04/10 01:10:02;;;;;;;10.32;2.00;;;9.30;99.90;;;;;;5334071;26;20086;-76
2024/04/10 01:12:30;;;;;;;9.70;1.58;;;9.10;99.90;;;;;;5363521;26;20013;-75
2024/04/10 01:14:56;;;;;;;9.30;1.90;;;9.10;99.90;;;;;;5394760;26;20006;-76
2024/04/10 01:17:21;;;;;;;13.25;1.85;;;9.20;99.90;;;;;;5392851;26;20028;-76
2024/04/10 01:19:47;;;;;;;14.13;1.52;;;9.30;99.90;;;;;;5312977;26;20407;-77
2024/04/10 01:22:12;;;;;;;8.95;1.48;;;9.20;99.90;;;;;;5327068;26;20083;-77
2024/04/10 01:24:38;;;;;;;14.23;3.55;;;9.10;99.90;;;;;;5366048;26;20094;-76
2024/04/10 01:27:04;;;;;;;13.27;1.90;;;9.10;99.90;;;;;;5335903;26;20012;-76
2024/04/10 01:29:29;;;;;;;6.38;1.02;;;9.10;99.90;;;;;;5335934;26;20002;-76
2024/04/10 01:31:55;;;;;;;11.82;1.73;;;9.10;99.90;;;;;;5395104;26;20073;-76
2024/04/10 01:34:20;;;;;;;2.58;1.30;;;9.10;99.90;;;;;;5352610;26;20330;-76
2024/04/10 01:36:48;;;;;;;7.20;1.55;;;9.00;99.90;;;;;;5346751;26;20005;-76
2024/04/10 01:39:14;;;;;;;13.90;1.88;;;9.00;99.90;;;;;;5342038;26;20065;-78
2024/04/10 01:41:39;;;;;;;11.63;1.75;;;9.00;99.90;;;;;;5339619;26;21153;-77
2024/04/10 01:44:05;;;;;;;9.57;1.67;;;8.80;99.90;;;;;;5337046;26;20008;-76
2024/04/10 01:46:30;;;;;;;5.30;1.65;;;8.70;99.90;;;;;;5341076;26;20012;-76
2024/04/10 01:48:56;;;;;;;10.52;1.98;;;8.80;99.90;;;;;;5333143;26;20002;-77
2024/04/10 01:51:23;;;;;;;10.43;2.00;;;8.70;99.90;;;;;;5369769;26;20013;-77
2024/04/10 01:53:49;;;;;;;9.20;1.52;;;8.70;99.90;;;;;;5356709;26;20006;-77
2024/04/10 01:56:15;;;;;;;12.25;1.38;;;8.70;99.90;;;;;;5345389;26;20005;-76
2024/04/10 01:58:40;;;;;;;11.82;1.80;;;8.70;99.90;;;;;;5337837;26;20857;-76
2024/04/10 02:01:06;;;;;;;13.35;1.27;;;8.70;99.90;;;;;;5343193;26;20033;-76
2024/04/10 02:03:31;;;;;;;5.93;1.27;;;8.80;99.90;;;;;;5386068;26;20002;-75
2024/04/10 02:05:57;;;;;;;11.43;1.80;;;8.50;99.90;;;;;;5364358;26;20005;-76
2024/04/10 02:08:22;;;;;;;11.75;1.67;;;8.50;99.90;;;;;;5339878;26;20033;-75
2024/04/10 02:10:48;;;;;;;11.43;1.95;;;8.50;99.90;;;;;;5343207;26;20001;-77
2024/04/10 02:13:13;;;;;;;10.13;1.58;;;8.50;99.90;;;;;;5340580;26;20008;-76
2024/04/10 02:15:39;;;;;;;19.25;1.58;;;8.40;99.90;;;;;;5341753;26;20126;-76
2024/04/10 02:18:04;;;;;;;12.95;1.80;;;8.50;99.90;;;;;;5360956;26;20006;-75
2024/04/10 02:20:30;;;;;;;11.30;1.98;;;8.60;99.90;;;;;;5324576;26;20005;-75
2024/04/10 02:22:56;;;;;;;11.25;1.88;;;8.50;99.90;;;;;;5333622;26;20079;-77
2024/04/10 02:25:21;;;;;;;8.35;1.90;;;8.50;99.90;;;;;;5334933;26;20013;-76
2024/04/10 02:27:47;;;;;;;10.75;2.13;;;8.50;99.90;;;;;;5336110;26;20005;-76
2024/04/10 02:30:13;;;;;;;11.38;1.90;;;8.40;99.90;;;;;;5354610;26;20019;-75
2024/04/10 02:32:38;;;;;;;11.70;1.33;;;8.40;99.90;;;;;;5341285;26;20016;-75
2024/04/10 02:35:04;;;;;;;12.00;2.25;;;8.20;99.90;;;;;;5331433;26;20080;-76
2024/04/10 02:37:29;;;;;;;7.85;1.95;;;8.50;99.90;;;;;;5339132;26;20015;-76
2024/04/10 02:39:55;;;;;;;14.35;2.40;;;8.40;99.90;;;;;;5364242;26;20044;-76
2024/04/10 02:42:20;;;;;;;8.68;1.75;;;8.40;99.90;;;;;;5341160;26;20000;-77
2024/04/10 02:44:50;;;;;;;7.72;1.67;;;8.30;99.90;;;;;;5337494;26;20001;-76
2024/04/10 02:47:17;;;;;;;10.90;2.35;;;8.30;99.90;;;;;;5339895;26;20120;-76
2024/04/10 02:49:42;;;;;;;11.23;1.75;;;8.20;99.90;;;;;;5385070;26;20486;-75
2024/04/10 02:52:08;;;;;;;10.77;1.88;;;8.20;99.90;;;;;;5361927;26;20008;-75
2024/04/10 02:54:33;;;;;;;9.73;1.77;;;8.10;99.90;;;;;;5323283;26;20042;-76
2024/04/10 02:56:59;;;;;;;8.23;1.48;;;8.10;99.90;;;;;;5361303;26;20005;-76
2024/04/10 02:59:25;;;;;;;12.68;1.42;;;8.00;99.90;;;;;;5342006;26;20011;-76
2024/04/10 03:01:51;;;;;;;5.85;0.75;;;7.90;99.90;;;;;;5339953;26;20001;-77
2024/04/10 03:04:16;;;;;;;17.33;3.05;;;7.90;99.90;;;;;;5365138;26;20001;-76
2024/04/10 03:06:42;;;;;;;5.63;0.70;;;7.90;99.90;;;;;;5335080;26;20389;-75
2024/04/10 03:09:10;;;;;;;12.43;1.85;;;7.90;99.90;;;;;;5336298;26;20544;-76
2024/04/10 03:11:36;;;;;;;7.80;2.15;;;7.90;99.90;;;;;;5336548;26;20389;-76
2024/04/10 03:14:01;;;;;;;6.50;0.85;;;7.80;99.90;;;;;;5357938;26;20053;-77
2024/04/10 03:16:27;;;;;;;11.90;1.75;;;7.80;99.90;;;;;;5366363;26;20441;-75
2024/04/10 03:18:52;;;;;;;8.80;1.75;;;7.70;99.90;;;;;;5338128;26;20454;-77
2024/04/10 03:21:18;;;;;;;5.25;1.17;;;7.80;99.90;;;;;;5346145;26;20006;-76
2024/04/10 03:23:43;;;;;;;15.68;2.13;;;7.80;99.90;;;;;;5334739;26;20001;-76
2024/04/10 03:26:09;;;;;;;12.55;1.88;;;7.70;99.90;;;;;;5367509;26;20016;-75
2024/04/10 03:28:34;;;;;;;6.85;1.33;;;7.80;99.90;;;;;;5361939;26;20004;-76
2024/04/10 03:31:02;;;;;;;6.03;1.58;;;7.70;99.90;;;;;;5365601;26;20466;-76
2024/04/10 03:33:28;;;;;;;6.03;1.27;;;7.80;99.90;;;;;;5371428;26;20352;-76
2024/04/10 03:35:53;;;;;;;5.05;1.10;;;7.80;99.90;;;;;;5336400;26;20015;-76
2024/04/10 03:38:20;;;;;;;14.52;3.13;;;7.80;99.90;;;;;;5363894;26;20790;-75
2024/04/10 03:40:46;;;;;;;2.97;0.88;;;7.90;99.90;;;;;;5366398;26;20020;-76
2024/04/10 03:43:12;;;;;;;12.18;1.77;;;7.80;99.90;;;;;;5369190;26;20002;-76
2024/04/10 03:45:37;;;;;;;6.22;0.90;;;7.80;99.90;;;;;;5339254;26;20398;-75
2024/04/10 03:48:03;;;;;;;3.90;1.13;;;7.90;99.90;;;;;;5337560;26;20419;-78
2024/04/10 03:50:29;;;;;;;10.15;1.40;;;7.80;99.90;;;;;;5354524;26;20452;-78
2024/04/10 03:52:54;;;;;;;11.90;1.63;;;7.70;99.90;;;;;;5354587;26;20035;-78
2024/04/10 03:55:20;;;;;;;5.40;0.77;;;7.70;99.90;;;;;;5333768;26;20023;-78
2024/04/10 03:57:45;;;;;;;9.77;1.58;;;7.70;99.90;;;;;;5388753;26;20518;-78
2024/04/10 04:00:11;;;;;;;8.38;2.05;;;7.80;99.90;;;;;;5358575;26;20047;-79
2024/04/10 04:02:37;;;;;;;2.38;0.88;;;7.70;99.90;;;;;;5355940;26;20441;-78
2024/04/10 04:05:02;;;;;;;7.90;2.03;;;7.80;99.90;;;;;;5323740;26;20452;-78
2024/04/10 04:07:28;;;;;;;7.05;1.08;;;7.80;99.90;;;;;;5328926;26;20519;-78
2024/04/10 04:09:53;;;;;;;4.53;1.15;;;7.80;99.90;;;;;;5328295;26;21052;-78
2024/04/10 04:12:19;;;;;;;19.25;2.10;;;7.80;99.90;;;;;;5322766;26;20036;-78
2024/04/10 04:14:44;;;;;;;8.85;1.85;;;7.80;99.90;;;;;;5330128;26;20014;-79
2024/04/10 04:17:10;;;;;;;10.82;2.17;;;7.90;99.90;;;;;;5321320;26;20024;-77
2024/04/10 04:19:35;;;;;;;12.40;2.35;;;7.80;99.90;;;;;;5335920;26;20613;-78
2024/04/10 04:22:01;;;;;;;2.95;1.08;;;7.80;99.90;;;;;;5333975;26;20041;-78
2024/04/10 04:24:26;;;;;;;11.75;1.27;;;7.80;99.90;;;;;;5358340;26;20020;-77
2024/04/10 04:26:52;;;;;;;6.57;1.15;;;7.90;99.90;;;;;;5385847;26;20070;-77
2024/04/10 04:29:17;;;;;;;6.53;1.25;;;7.90;99.90;;;;;;5365379;26;20009;-77
2024/04/10 04:31:43;;;;;;;3.80;0.93;;;7.80;99.90;;;;;;5332339;26;20006;-78
2024/04/10 04:34:16;;;;;;;8.25;1.38;;;7.80;99.90;;;;;;5359006;26;20107;-78
2024/04/10 04:36:41;;;;;;;11.90;1.38;;;7.90;99.90;;;;;;5359790;26;20005;-78
2024/04/10 04:39:07;;;;;;;13.45;2.65;;;7.90;99.90;;;;;;5350458;26;20016;-78
2024/04/10 04:41:33;;;;;;;8.05;1.77;;;7.90;99.90;;;;;;5358891;26;20563;-77
2024/04/10 04:43:59;;;;;;;5.70;1.67;;;7.90;99.90;;;;;;5353993;26;20016;-77
2024/04/10 04:46:25;;;;;;;11.73;2.05;;;8.00;99.90;;;;;;5316114;26;20103;-77
2024/04/10 04:48:50;;;;;;;18.88;2.70;;;8.00;99.90;;;;;;5354473;26;20012;-78
2024/04/10 04:51:16;;;;;;;11.60;1.55;;;8.10;99.90;;;;;;5357482;26;20024;-79
2024/04/10 04:53:41;;;;;;;4.55;1.20;;;8.10;99.90;;;;;;5350842;26;20037;-77
2024/04/10 04:56:07;;;;;;;8.88;1.85;;;7.80;99.90;;;;;;5358422;26;20049;-77
2024/04/10 04:58:32;;;;;;;20.17;2.72;;;7.90;99.90;;;;;;5321725;26;20009;-76
2024/04/10 05:00:58;;;;;;;18.45;5.32;;;7.80;99.90;;;;;;5354066;26;20013;-77
2024/04/10 05:06:10;;;;;;;13.05;2.28;;;7.80;99.90;;;;;;5348583;26;20406;-77
2024/04/10 05:08:35;;;;;;;10.77;2.13;;;7.80;99.90;;;;;;5362758;26;20004;-76
2024/04/10 05:11:06;;;;;;;9.00;1.80;;;7.80;99.90;;;;;;5355598;26;20012;-76
2024/04/10 05:13:32;;;;;;;6.30;2.08;;;7.70;99.90;;;;;;5334562;26;20028;-77
2024/04/10 05:15:58;;;;;;;10.00;1.80;;;7.70;99.90;;;;;;5330831;26;20341;-77
2024/04/10 05:18:24;;;;;;;13.32;1.95;;;7.70;99.90;;;;;;5362659;26;20341;-77
2024/04/10 05:20:49;;;;;;;10.65;2.10;;;7.70;99.90;;;;;;5335138;26;20025;-77
2024/04/10 05:23:15;;;;;;;8.07;2.15;;;7.70;99.90;;;;;;5342334;26;20016;-77
2024/04/10 05:25:40;;;;;;;11.52;2.15;;;7.70;99.90;;;;;;5336009;26;20064;-77
2024/04/10 05:28:06;;;;;;;11.23;1.52;;;7.70;99.90;;;;;;5361643;26;20516;-77
2024/04/10 05:30:40;;;;;;;12.27;2.17;;;7.80;99.90;;;;;;5355447;26;20775;-77
2024/04/10 05:33:05;;;;;;;11.73;2.10;;;7.80;99.90;;;;;;5361278;26;20087;-77
2024/04/10 05:35:31;;;;;;;10.23;1.88;;;7.90;99.90;;;;;;5336425;26;20429;-77
2024/04/10 05:37:58;;;;;;;9.57;2.78;;;7.90;99.90;;;;;;5362968;26;20350;-77
2024/04/10 05:40:25;;;;;;;9.75;1.67;;;8.00;99.90;;;;;;5387557;26;20348;-77
2024/04/10 05:42:51;;;;;;;11.85;2.53;;;7.90;99.90;;;;;;5363620;26;20078;-78
2024/04/10 05:45:17;;;;;;;8.90;1.63;;;8.10;99.90;;;;;;5342728;26;20021;-77
2024/04/10 05:47:49;;;;;;;14.10;2.50;;;8.00;99.90;;;;;;5344074;26;20005;-77
2024/04/10 05:50:14;;;;;;;9.57;2.08;;;8.10;99.90;;;;;;5352856;26;20002;-76
2024/04/10 05:52:40;;;;;;;13.32;2.28;;;8.20;99.90;;;;;;5355974;26;20019;-77
2024/04/10 05:55:06;;;;;;;17.92;2.33;;;8.20;99.90;;;;;;5391086;26;20037;-77
2024/04/10 05:57:31;;;;;;;6.35;1.90;;;8.20;99.90;;;;;;5330688;26;20000;-77
2024/04/10 05:59:57;;;;;;;8.27;2.25;;;8.20;99.90;;;;;;5360992;26;20053;-77
2024/04/10 06:02:26;;;;;;;18.48;2.28;;;8.30;99.90;;;;;;5334407;26;20012;-77
2024/04/10 06:04:55;;;;;;;6.70;1.50;;;8.20;99.90;;;;;;5327045;26;20063;-77
2024/04/10 06:07:21;;;;;;;19.00;3.90;;;8.40;99.90;;;;;;5335526;26;20081;-76
2024/04/10 06:09:55;;;;;;;9.30;0.80;;;8.40;99.90;;;;;;5384294;26;20001;-76
2024/04/10 06:12:22;;;;;;;13.13;2.80;;;8.40;99.90;;;;;;5351194;26;20010;-76
2024/04/10 06:14:52;;;;;;;5.57;1.48;;;8.40;99.90;;;;;;5363711;26;20456;-77
2024/04/10 06:17:17;;;;;;;15.73;3.38;;;8.50;99.90;;;;;;5355175;26;20019;-77
2024/04/10 06:19:43;;;;;;;11.27;2.10;;;8.60;99.90;;;;;;5324197;26;20005;-76
2024/04/10 06:22:09;;;;;;;12.52;2.20;;;8.70;99.90;;;;;;5330623;26;20010;-77
2024/04/10 06:24:34;;;;;;;7.53;1.63;;;8.60;99.90;;;;;;5359895;26;20007;-77
2024/04/10 06:27:00;;;;;;;10.07;2.38;;;8.70;99.90;;;;;;5361199;26;20001;-77
2024/04/10 06:29:26;;;;;;;8.75;1.88;;;8.70;99.90;;;;;;5356886;26;20473;-76
2024/04/10 06:31:52;;;;;;;6.93;1.65;;;8.80;99.90;;;;;;5354912;26;20078;-77
2024/04/10 06:34:17;;;;;;;7.78;1.77;;;9.00;99.90;;;;;;5333556;26;20045;-77
2024/04/10 06:36:43;;;;;;;9.18;1.92;;;9.00;99.90;;;;;;5326160;26;20598;-76
2024/04/10 06:39:10;;;;;;;6.50;1.90;;;9.00;99.90;;;;;;5359107;26;20005;-76
2024/04/10 06:41:36;;;;;;;6.25;1.40;;;9.10;99.90;;;;;;5386454;26;20037;-76
2024/04/10 06:44:01;;;;;;;12.98;3.13;;;9.20;99.90;;;;;;5332172;26;20015;-76
2024/04/10 06:46:27;;;;;;;7.32;1.85;;;9.30;99.90;;;;;;5341537;26;20452;-76
2024/04/10 06:48:53;;;;;;;7.35;2.25;;;9.40;99.90;;;;;;5332550;26;20041;-76
2024/04/10 06:51:19;;;;;;;12.00;2.65;;;9.40;99.90;;;;;;5326343;26;20490;-76
2024/04/10 06:53:44;;;;;;;8.25;3.10;;;9.50;99.90;;;;;;5330946;26;20020;-76
2024/04/10 06:56:10;;;;;;;8.35;3.25;;;9.60;99.90;;;;;;5329525;26;20004;-76
2024/04/10 06:58:39;;;;;;;8.25;1.60;;;9.60;99.90;;;;;;5365766;26;20036;-77
2024/04/10 07:01:05;;;;;;;5.28;1.27;;;9.70;99.90;;;;;;5385259;26;20501;-77
2024/04/10 07:03:39;;;;;;;8.93;1.25;;;9.80;99.90;;;;;;5366509;26;20040;-77
2024/04/10 07:06:11;;;;;;;11.77;1.65;;;9.90;99.90;;;;;;5308484;26;20006;-77
2024/04/10 07:08:42;;;;;;;6.60;1.60;;;10.00;99.90;;;;;;5332837;26;20067;-77
2024/04/10 07:11:09;;;;;;;14.05;2.30;;;10.10;99.90;;;;;;5352383;26;20010;-77
2024/04/10 07:13:43;;;;;;;6.55;2.33;;;10.20;99.90;;;;;;5313923;26;20309;-76
2024/04/10 07:16:09;;;;;;;4.43;1.40;;;10.30;99.90;;;;;;5311035;26;20517;-76
2024/04/10 07:18:35;;;;;;;10.73;1.85;;;10.30;99.90;;;;;;5336753;26;20012;-76
2024/04/10 07:21:01;;;;;;;14.35;2.42;;;10.30;99.90;;;;;;5352147;26;20038;-76
2024/04/10 07:23:27;;;;;;;10.10;1.83;;;10.40;99.90;;;;;;5335880;26;20074;-76
2024/04/10 07:25:52;;;;;;;2.15;0.90;;;10.50;99.90;;;;;;5360740;26;20012;-77
2024/04/10 07:28:18;;;;;;;10.50;2.75;;;10.70;99.90;;;;;;5355214;26;19993;-76
2024/04/10 07:30:49;;;;;;;11.73;2.15;;;10.70;99.90;;;;;;5358724;26;20001;-76
2024/04/10 07:33:17;;;;;;;11.73;2.20;;;10.80;99.90;;;;;;5352861;26;20016;-76
2024/04/10 07:35:43;;;;;;;9.35;1.95;;;10.80;99.90;;;;;;5355021;26;20006;-76
2024/04/10 07:38:09;;;;;;;9.18;2.05;;;11.10;99.90;;;;;;5348547;26;20041;-77
2024/04/10 07:40:34;;;;;;;10.73;1.75;;;11.10;99.90;;;;;;5306813;26;20654;-76
2024/04/10 07:43:00;;;;;;;2.88;1.17;;;11.30;99.90;;;;;;5300356;26;20011;-75
2024/04/10 07:45:28;;;;;;;11.23;2.75;;;11.40;99.90;;;;;;5330093;26;20001;-77
2024/04/10 07:48:07;;;;;;;16.35;4.72;;;11.50;99.90;;;;;;5381542;26;20448;-76
2024/04/10 07:50:33;;;;;;;10.32;3.53;;;11.40;99.90;;;;;;5387996;26;20452;-74
2024/04/10 07:52:58;;;;;;;12.25;4.30;;;11.40;99.90;;;;;;5322218;26;20040;-77
2024/04/10 07:55:24;;;;;;;10.20;3.22;;;11.80;99.90;;;;;;5328841;26;20542;-76
2024/04/10 07:57:50;;;;;;;8.65;2.35;;;12.00;99.90;;;;;;5374432;26;20031;-76
2024/04/10 08:00:17;;;;;;;10.60;3.13;;;12.20;99.90;;;;;;5319877;26;20013;-75
2024/04/10 08:02:45;;;;;;;6.93;3.45;;;12.20;99.90;;;;;;5333840;26;20374;-76
2024/04/10 08:05:11;;;;;;;15.35;4.75;;;12.50;99.90;;;;;;5364516;26;20463;-77
2024/04/10 08:07:44;;;;;;;12.40;3.67;;;12.80;99.90;;;;;;5319376;26;20052;-77
2024/04/10 08:10:10;;;;;;;13.70;4.35;;;12.80;99.90;;;;;;5302826;26;20017;-80
2024/04/10 08:12:35;;;;;;;14.40;4.93;;;13.00;99.90;;;;;;5362018;26;20001;-79
2024/04/10 08:15:01;;;;;;;10.77;3.00;;;13.00;99.90;;;;;;5341098;26;20011;-81
2024/04/10 08:17:26;;;;;;;3.00;1.00;;;13.00;99.90;;;;;;5355735;26;20023;-80
2024/04/10 08:19:58;;;;;;;12.20;4.00;;;13.20;99.90;;;;;;5357610;26;20019;-79
2024/04/10 08:22:24;;;;;;;6.63;2.08;;;13.20;99.90;;;;;;5327295;26;20001;-79
2024/04/10 08:25:03;;;;;;;10.30;3.75;;;13.20;99.90;;;;;;5315597;26;20009;-81
2024/04/10 08:27:29;;;;;;;13.45;3.80;;;13.40;99.90;;;;;;5314892;26;20056;-80
2024/04/10 08:29:54;;;;;;;12.40;4.45;;;13.40;99.90;;;;;;5293358;26;20019;-79
2024/04/10 08:32:23;;;;;;;5.22;1.80;;;13.60;99.90;;;;;;5333931;26;20009;-79
2024/04/10 08:34:49;;;;;;;10.32;3.67;;;13.50;99.90;;;;;;5300708;26;20010;-78
2024/04/10 08:37:14;;;;;;;22.90;4.35;;;13.80;99.90;;;;;;5343460;26;20009;-79
2024/04/10 08:39:40;;;;;;;8.65;3.28;;;13.90;99.90;;;;;;5330749;26;20461;-79
2024/04/10 08:42:06;;;;;;;9.68;3.65;;;14.20;99.90;;;;;;5324988;26;19998;-79
2024/04/10 08:44:31;;;;;;;15.38;3.92;;;14.50;99.90;;;;;;5386840;26;20012;-80
2024/04/10 08:46:57;;;;;;;14.38;5.45;;;14.50;99.90;;;;;;5327748;26;20016;-80
2024/04/10 08:49:23;;;;;;;11.65;3.53;;;14.40;99.90;;;;;;5324438;26;20049;-79
2024/04/10 08:51:48;;;;;;;9.88;3.22;;;14.70;99.90;;;;;;5346559;26;20019;-79
2024/04/10 08:54:14;;;;;;;6.22;2.25;;;15.00;99.90;;;;;;5342256;26;20005;-78
2024/04/10 08:56:40;;;;;;;9.35;3.97;;;15.10;99.90;;;;;;5385812;26;20338;-78
2024/04/10 08:59:05;;;;;;;11.05;3.40;;;15.10;99.90;;;;;;5362866;26;20000;-78
2024/04/10 09:01:33;;;;;;;8.18;4.28;;;15.50;99.90;;;;;;5329536;26;20023;-79
2024/04/10 09:04:31;;;;;;;11.52;4.50;;;15.70;99.90;;;;;;5331548;26;20019;-79
2024/04/10 09:07:03;;;;;;;16.42;4.80;;;15.60;99.90;;;;;;5380783;26;20087;-78
2024/04/10 09:09:29;;;;;;;13.25;4.28;;;15.90;99.90;;;;;;5378034;26;20001;-79
2024/04/10 09:11:55;;;;;;;13.98;4.05;;;16.30;99.90;;;;;;5391399;26;20362;-79
2024/04/10 09:14:20;;;;;;;16.20;4.20;;;16.70;99.90;;;;;;5362766;26;20008;-78
2024/04/10 09:16:46;;;;;;;13.77;3.55;;;16.50;99.90;;;;;;5383845;26;20006;-78
2024/04/10 09:19:12;;;;;;;11.15;3.45;;;16.50;99.90;;;;;;5336545;26;20000;-78
2024/04/10 09:21:42;;;;;;;8.82;3.58;;;16.70;99.90;;;;;;5338147;26;20004;-78
2024/04/10 09:24:10;;;;;;;13.10;4.13;;;16.70;99.90;;;;;;5364088;26;20015;-79
2024/04/10 09:26:36;;;;;;;11.30;3.28;;;17.00;99.90;;;;;;5360583;26;20020;-79
2024/04/10 09:29:03;;;;;;;12.23;3.30;;;17.00;99.90;;;;;;5334945;26;20149;-80
2024/04/10 09:31:29;;;;;;;5.93;2.53;;;16.80;99.90;;;;;;5361177;26;20009;-80
2024/04/10 09:33:54;;;;;;;5.68;2.58;;;16.90;99.90;;;;;;5332158;26;20469;-79
2024/04/10 09:36:20;;;;;;;13.77;3.50;;;17.20;99.90;;;;;;5332271;26;20378;-79
2024/04/10 09:38:47;;;;;;;8.40;3.40;;;17.20;99.50;;;;;;5331985;26;20351;-78
2024/04/10 09:41:14;;;;;;;12.75;3.67;;;17.20;99.90;;;;;;5293383;26;20445;-78
2024/04/10 09:43:41;;;;;;;9.77;3.58;;;17.40;99.90;;;;;;5370154;26;20003;-78
2024/04/10 09:46:08;;;;;;;7.43;3.53;;;17.50;98.10;;;;;;5353684;26;20067;-78
2024/04/10 09:48:34;;;;;;;6.50;2.55;;;18.00;99.90;;;;;;5365869;26;20048;-77
2024/04/10 09:51:07;;;;;;;12.93;3.60;;;17.90;98.60;;;;;;5358577;26;20418;-78
2024/04/10 09:53:36;;;;;;;9.25;4.40;;;17.90;98.80;;;;;;5322048;26;20002;-78
2024/04/10 09:56:02;;;;;;;9.40;3.42;;;18.10;99.90;;;;;;5332470;26;20123;-77
2024/04/10 09:58:28;;;;;;;12.32;4.28;;;18.10;95.30;;;;;;5342586;26;20082;-77
2024/04/10 10:00:53;;;;;;;6.97;3.33;;;17.70;95.30;;;;;;5358897;26;20013;-78
2024/04/10 10:03:25;;;;;;;10.25;3.60;;;17.60;94.60;;;;;;5350529;26;20015;-78
2024/04/10 10:06:08;;;;;;;7.18;3.70;;;18.10;99.50;;;;;;5339003;26;20377;-78
2024/04/10 10:08:35;;;;;;;5.50;3.00;;;18.40;99.90;;;;;;5335340;26;20035;-81
2024/04/10 10:11:00;;;;;;;6.30;2.03;;;18.20;97.30;;;;;;5341862;26;19998;-81
2024/04/10 10:13:42;;;;;;;6.68;1.77;;;18.20;97.00;;;;;;5335761;26;20020;-80
2024/04/10 10:16:08;;;;;;;16.55;4.07;;;18.20;99.20;;;;;;5304913;26;20468;-80
2024/04/10 10:18:40;;;;;;;14.65;2.97;;;17.90;96.70;;;;;;5306893;26;20005;-79
2024/04/10 10:21:09;;;;;;;9.93;2.80;;;17.70;98.70;;;;;;5316013;26;20576;-79
2024/04/10 10:23:36;;;;;;;9.23;2.92;;;17.50;96.60;;;;;;5365304;26;20526;-77
2024/04/10 10:26:02;;;;;;;7.13;2.30;;;17.50;98.70;;;;;;5343787;26;20012;-78
2024/04/10 10:28:31;;;;;;;6.85;2.28;;;17.20;98.70;;;;;;5353421;26;20000;-77
2024/04/10 10:31:10;;;;;;;8.27;2.08;;;17.30;98.50;;;;;;5306132;26;20001;-76
2024/04/10 10:33:40;;;;;;;7.07;3.38;;;17.30;99.20;;;;;;5355792;26;20485;-77
2024/04/10 10:36:06;;;;;;;7.00;2.45;;;17.30;98.00;;;;;;5334866;26;20943;-77
2024/04/10 10:38:32;;;;;;;13.18;2.47;;;17.20;98.50;;;;;;5328758;26;20140;-77
2024/04/10 10:41:07;;;;;;;6.55;2.03;;;16.50;95.40;;;;;;5355146;26;20012;-77
2024/04/10 10:43:36;;;;;;;3.80;2.05;;;16.90;98.20;;;;;;5329078;26;20001;-77
2024/04/10 10:46:08;;;;;;;6.28;2.15;;;17.00;96.20;;;;;;5383994;26;20013;-77
2024/04/10 10:48:33;;;;;;;5.72;2.47;;;17.10;97.20;;;;;;5391634;26;20078;-77
2024/04/10 10:50:59;;;;;;;9.93;2.50;;;17.20;98.10;;;;;;5335154;26;20034;-78
2024/04/10 10:53:26;;;;;;;8.45;2.33;;;17.20;97.70;;;;;;5353411;26;20009;-77
2024/04/10 10:55:52;;;;;;;6.85;2.13;;;17.30;97.70;;;;;;5334311;26;20016;-77
2024/04/10 10:58:18;;;;;;;6.75;2.05;;;17.40;97.80;;;;;;5323393;26;20054;-77
2024/04/10 11:00:51;;;;;;;4.85;2.08;;;17.50;96.80;;;;;;5390455;26;20067;-78
2024/04/10 11:03:17;;;;;;;8.73;2.22;;;17.60;98.50;;;;;;5316266;26;20013;-77
2024/04/10 11:05:44;;;;;;;4.35;1.58;;;17.80;97.70;;;;;;5326872;26;20400;-77
2024/04/10 11:08:09;;;;;;;4.95;1.60;;;17.80;96.70;;;;;;5306648;26;20013;-76
2024/04/10 11:10:35;;;;;;;3.75;1.63;;;17.90;97.50;;;;;;5299722;26;20004;-76
2024/04/10 11:13:02;;;;;;;5.05;1.65;;;17.90;96.80;;;;;;5333079;26;20078;-77
2024/04/10 11:15:27;;;;;;;5.50;1.85;;;18.00;97.70;;;;;;5334148;26;20736;-76
2024/04/10 11:18:02;;;;;;;6.97;1.60;;;18.40;97.20;;;;;;5334565;26;20055;-76
2024/04/10 11:20:29;;;;;;;5.37;1.30;;;18.20;94.70;;;;;;5356470;26;20002;-76
2024/04/10 11:22:59;;;;;;;5.80;1.38;;;18.20;95.40;;;;;;5380941;26;20003;-77
2024/04/10 11:25:25;;;;;;;10.02;1.60;;;18.10;96.10;;;;;;5337455;26;20005;-77
2024/04/10 11:27:51;;;;;;;7.30;1.70;;;18.00;95.40;;;;;;5357129;26;20078;-76
2024/04/10 11:30:16;;;;;;;7.25;1.30;;;18.10;95.10;;;;;;5360845;26;20046;-77
2024/04/10 11:32:42;;;;;;;4.28;1.85;;;17.80;93.10;;;;;;5296301;26;20016;-77
2024/04/10 11:35:13;;;;;;;4.43;1.88;;;18.00;95.70;;;;;;5324200;26;20001;-76
2024/04/10 11:37:41;;;;;;;4.10;1.45;;;17.80;93.60;;;;;;5318840;26;20006;-77
2024/04/10 11:40:13;;;;;;;6.10;1.83;;;18.10;94.70;;;;;;5335118;26;20444;-77
2024/04/10 11:42:39;;;;;;;6.15;1.55;;;18.40;95.80;;;;;;5336233;26;20879;-77
2024/04/10 11:45:07;;;;;;;6.55;1.90;;;18.70;94.40;;;;;;5327308;26;20005;-76
2024/04/10 11:47:35;;;;;;;3.72;1.42;;;18.70;94.80;;;;;;5308208;26;20013;-76
2024/04/10 11:50:02;;;;;;;4.30;1.33;;;18.60;92.80;;;;;;5344580;26;20442;-76
2024/04/10 11:52:27;;;;;;;4.65;1.50;;;18.70;94.50;;;;;;5341776;26;20015;-78
2024/04/10 11:54:53;;;;;;;6.30;1.33;;;18.80;93.30;;;;;;5342550;26;20012;-77
2024/04/10 11:57:18;;;;;;;3.78;1.02;;;18.70;94.30;;;;;;5387585;26;20347;-77
2024/04/10 11:59:47;;;;;;;8.18;1.60;;;18.70;92.50;;;;;;5357062;26;20005;-76
2024/04/10 12:02:12;;;;;;;2.17;0.40;;;18.70;93.70;;;;;;5394686;26;20002;-76
2024/04/10 12:04:38;;;;;;;4.05;1.15;;;18.80;91.80;;;;;;5371864;26;20014;-76
2024/04/10 12:07:04;;;;;;;3.55;1.30;;;19.00;92.70;;;;;;5341902;26;20090;-77
2024/04/10 12:09:29;;;;;;;3.58;1.30;;;19.00;92.20;;;;;;5308608;26;20032;-76
2024/04/10 12:11:55;;;;;;;8.65;1.83;;;18.90;92.40;;;;;;5334818;26;20009;-77
2024/04/10 12:14:20;;;;;;;8.85;1.45;;;18.90;91.50;;;;;;5357248;26;20030;-76
2024/04/10 12:16:46;;;;;;;4.55;1.40;;;18.90;92.50;;;;;;5331520;26;20350;-77
2024/04/10 12:19:11;;;;;;;5.10;1.90;;;18.80;92.30;;;;;;5326827;26;20664;-77
2024/04/10 12:21:37;;;;;;;7.88;1.67;;;18.80;91.40;;;;;;5329855;26;20469;-76
2024/04/10 12:24:04;;;;;;;6.03;1.20;;;18.90;92.60;;;;;;5350259;26;20049;-76
2024/04/10 12:26:33;;;;;;;3.60;1.05;;;18.80;90.20;;;;;;5301672;26;20477;-76
2024/04/10 12:28:59;;;;;;;3.45;1.17;;;18.80;91.20;;;;;;5327251;26;20008;-77
2024/04/10 12:31:25;;;;;;;7.03;1.63;;;18.80;91.20;;;;;;5332212;26;20011;-76
2024/04/10 12:33:51;;;;;;;11.63;2.08;;;18.80;91.70;;;;;;5308917;26;20031;-76
2024/04/10 12:39:02;;;;;;;4.05;1.63;;;19.10;91.10;;;;;;5337983;26;20022;-76
2024/04/10 12:41:27;;;;;;;8.23;1.80;;;19.10;91.10;;;;;;5338890;26;20502;-76
2024/04/10 12:43:54;;;;;;;4.70;1.58;;;19.30;90.10;;;;;;5303675;26;20007;-76
2024/04/10 12:46:22;;;;;;;3.88;1.50;;;19.40;91.70;;;;;;5313465;26;20034;-76
2024/04/10 12:48:48;;;;;;;5.75;1.40;;;19.30;90.90;;;;;;5329545;26;20013;-76
2024/04/10 12:51:16;;;;;;;9.50;1.50;;;19.30;90.50;;;;;;5302680;26;20073;-76